createdAt,value
2018-10-19T00:03:30.054Z,24.64
2018-10-19T00:10:30.480Z,24.69
2018-10-19T00:19:30.109Z,24.66
2018-10-19T00:22:29.732Z,24.67
2018-10-19T00:23:29.404Z,24.71
2018-10-19T00:28:31.723Z,24.70
2018-10-19T00:30:29.500Z,24.70
2018-10-19T00:33:29.935Z,24.71
2018-10-19T00:37:30.136Z,24.71
2018-10-19T00:40:30.876Z,24.71
2018-10-19T00:41:28.715Z,24.64
2018-10-19T00:51:28.602Z,24.63
2018-10-19T00:53:29.696Z,24.63
2018-10-19T01:07:29.266Z,24.64
2018-10-19T01:14:30.078Z,24.66
2018-10-19T01:16:29.317Z,24.61
2018-10-19T01:17:28.817Z,24.61
2018-10-19T01:20:29.939Z,24.69
2018-10-19T11:36:25.146Z,23.12
2018-10-19T11:37:24.711Z,23.10
2018-10-19T11:38:24.614Z,23.18
2018-10-19T11:39:24.584Z,23.15
2018-10-19T11:40:24.565Z,23.16
2018-10-19T11:41:24.656Z,23.16
2018-10-19T11:42:24.494Z,23.22
2018-10-19T11:43:24.471Z,23.18
2018-10-19T11:44:24.490Z,23.22
2018-10-19T11:45:24.417Z,23.22
2018-10-19T11:46:24.474Z,23.34
2018-10-19T11:47:24.529Z,23.34
2018-10-19T11:48:24.360Z,23.32
2018-10-19T11:49:24.403Z,23.35
2018-10-19T11:50:24.372Z,23.34
2018-10-19T11:51:24.247Z,23.35
2018-10-19T11:52:24.360Z,23.41
2018-10-19T11:53:24.236Z,23.28
2018-10-19T11:54:24.162Z,23.32
2018-10-19T11:55:24.123Z,23.32
2018-10-19T11:56:24.135Z,23.41
2018-10-19T11:57:24.191Z,23.50
2018-10-19T11:58:24.098Z,23.45
2018-10-19T11:59:24.037Z,23.47
2018-10-19T12:00:24.011Z,23.53
2018-10-19T12:01:24.005Z,23.48
2018-10-19T12:02:24.167Z,23.53
2018-10-19T12:03:23.961Z,23.57
2018-10-19T12:04:23.885Z,23.62
2018-10-19T12:05:23.902Z,23.63
2018-10-19T12:06:23.839Z,23.64
2018-10-19T12:07:23.917Z,23.67
2018-10-19T12:08:23.876Z,23.67
2018-10-19T12:09:23.773Z,23.78
2018-10-19T12:10:24.860Z,23.75
2018-10-19T12:11:25.525Z,23.74
2018-10-19T12:12:24.654Z,23.74
2018-10-19T12:13:23.638Z,23.72
2018-10-19T12:14:23.604Z,23.78
2018-10-19T12:15:23.606Z,23.77
2018-10-19T12:16:23.683Z,23.74
2018-10-19T12:17:23.590Z,23.78
2018-10-19T12:18:23.609Z,23.90
2018-10-19T12:19:23.529Z,23.87
2018-10-19T12:20:23.463Z,23.99
2018-10-19T12:21:23.463Z,23.94
2018-10-19T12:22:23.419Z,23.93
2018-10-19T12:23:23.404Z,24.03
2018-10-19T12:24:23.457Z,24.11
2018-10-19T12:25:23.452Z,24.21
2018-10-19T12:26:23.687Z,24.27
2018-10-19T12:27:23.268Z,24.36
2018-10-19T12:28:23.232Z,24.54
2018-10-19T12:29:23.312Z,24.70
2018-10-19T12:32:23.148Z,24.83
2018-10-19T12:33:23.098Z,24.75
2018-10-19T12:34:23.177Z,24.80
2018-10-19T12:35:23.074Z,24.78
2018-10-19T12:36:23.022Z,24.78
2018-10-19T12:37:22.999Z,24.82
2018-10-19T12:38:22.980Z,24.80
2018-10-19T12:39:23.625Z,24.89
2018-10-19T12:40:27.342Z,24.90
2018-10-19T12:41:24.156Z,24.97
2018-10-19T12:42:22.865Z,25.11
2018-10-19T12:43:23.744Z,25.12
2018-10-19T12:45:24.202Z,25.11
2018-10-19T12:48:23.361Z,25.41
2018-10-19T12:51:22.677Z,25.49
2018-10-19T12:52:22.604Z,25.54
2018-10-19T12:53:22.567Z,25.64
2018-10-19T12:54:22.661Z,25.78
2018-10-19T12:55:22.645Z,25.94
2018-10-19T12:56:22.527Z,25.96
2018-10-19T12:57:22.486Z,26.06
2018-10-19T12:58:22.435Z,26.26
2018-10-19T12:59:22.409Z,26.32
2018-10-19T13:00:22.395Z,26.42
2018-10-19T13:01:22.448Z,26.38
2018-10-19T13:02:22.337Z,26.45
2018-10-19T13:03:22.508Z,26.47
2018-10-19T13:04:22.303Z,26.53
2018-10-19T13:05:22.304Z,26.59
2018-10-19T13:06:22.222Z,26.60
2018-10-19T13:07:22.301Z,26.69
2018-10-19T13:08:22.182Z,26.75
2018-10-19T13:09:22.219Z,26.94
2018-10-19T13:10:22.243Z,27.05
2018-10-19T13:11:22.170Z,27.11
2018-10-19T13:12:22.240Z,27.15
2018-10-19T13:13:22.024Z,27.37
2018-10-19T13:14:22.041Z,27.33
2018-10-19T13:15:22.010Z,27.31
2018-10-19T13:16:22.109Z,27.45
2018-10-19T13:17:22.052Z,27.42
2018-10-19T13:18:21.930Z,27.48
2018-10-19T13:19:21.908Z,27.55
2018-10-19T13:20:21.865Z,27.57
2018-10-19T13:21:21.852Z,27.49
2018-10-19T13:22:21.915Z,27.48
2018-10-19T13:23:21.919Z,27.51
2018-10-19T13:24:21.792Z,27.69
2018-10-19T13:25:21.733Z,27.83
2018-10-19T13:26:21.724Z,27.83
2018-10-19T13:27:21.724Z,28.01
2018-10-19T13:28:21.767Z,28.06
2018-10-19T13:29:21.643Z,27.96
2018-10-19T13:30:21.684Z,27.87
2018-10-19T13:31:21.684Z,28.06
2018-10-19T13:32:21.569Z,28.11
2018-10-19T13:33:21.711Z,28.23
2018-10-19T13:34:21.647Z,28.26
2018-10-19T13:35:21.662Z,28.35
2018-10-19T13:36:21.584Z,28.31
2018-10-19T13:37:21.621Z,28.36
2018-10-19T13:38:21.479Z,28.48
2018-10-19T13:39:21.519Z,28.65
2018-10-19T13:40:21.389Z,28.54
2018-10-19T13:41:21.387Z,28.55
2018-10-19T13:42:21.333Z,28.65
2018-10-19T13:43:21.337Z,28.55
2018-10-19T13:44:21.303Z,28.65
2018-10-19T13:45:21.332Z,28.79
2018-10-19T13:46:21.710Z,28.82
2018-10-19T13:47:21.195Z,28.64
2018-10-19T13:48:21.185Z,28.65
2018-10-19T13:49:21.167Z,28.80
2018-10-19T13:50:21.336Z,28.57
2018-10-19T13:51:21.190Z,28.72
2018-10-19T13:52:21.312Z,28.65
2018-10-19T13:53:21.081Z,28.79
2018-10-19T13:54:21.040Z,28.73
2018-10-19T13:55:21.091Z,28.79
2018-10-19T13:56:20.966Z,28.86
2018-10-19T13:57:20.981Z,29.05
2018-10-19T13:58:21.092Z,28.98
2018-10-19T13:59:20.912Z,29.13
2018-10-19T14:00:21.014Z,29.23
2018-10-19T14:01:20.842Z,29.14
2018-10-19T14:02:20.869Z,29.08
2018-10-19T14:03:20.806Z,29.23
2018-10-19T14:04:20.836Z,29.29
2018-10-19T14:05:20.833Z,29.35
2018-10-19T14:06:20.840Z,29.52
2018-10-19T14:07:20.724Z,29.60
2018-10-19T14:08:20.683Z,29.72
2018-10-19T14:09:20.701Z,29.87
2018-10-19T14:10:20.715Z,29.72
2018-10-19T14:11:20.735Z,29.88
2018-10-19T14:12:20.588Z,29.95
2018-10-19T14:13:20.598Z,30.04
2018-10-19T14:14:20.558Z,30.03
2018-10-19T14:15:20.527Z,30.11
2018-10-19T14:16:20.603Z,30.19
2018-10-19T14:17:20.507Z,30.11
2018-10-19T14:18:20.441Z,30.14
2018-10-19T14:20:20.400Z,30.10
2018-10-19T14:21:20.383Z,30.19
2018-10-19T14:22:20.501Z,30.39
2018-10-19T14:23:20.359Z,30.22
2018-10-19T14:24:20.331Z,30.11
2018-10-19T14:25:20.293Z,30.22
2018-10-19T14:26:20.286Z,30.18
2018-10-19T14:27:20.343Z,30.19
2018-10-19T14:28:20.254Z,30.32
2018-10-19T14:29:20.193Z,30.29
2018-10-19T14:30:20.189Z,30.28
2018-10-19T14:31:20.160Z,30.11
2018-10-19T14:32:20.347Z,30.09
2018-10-19T14:33:20.259Z,30.11
2018-10-19T14:34:20.090Z,29.91
2018-10-19T14:35:20.071Z,29.87
2018-10-19T14:36:20.067Z,29.85
2018-10-19T14:37:20.279Z,29.88
2018-10-19T14:38:19.998Z,29.84
2018-10-19T14:39:19.963Z,29.76
2018-10-19T14:40:19.952Z,29.76
2018-10-19T14:41:19.933Z,29.89
2018-10-19T14:42:19.920Z,29.88
2018-10-19T14:43:20.017Z,29.98
2018-10-19T14:44:19.856Z,29.79
2018-10-19T14:45:19.853Z,29.61
2018-10-19T14:46:19.813Z,29.60
2018-10-19T14:47:19.794Z,29.63
2018-10-19T14:48:19.765Z,29.67
2018-10-19T14:49:19.945Z,29.73
2018-10-19T14:50:19.707Z,29.67
2018-10-19T14:51:19.705Z,29.50
2018-10-19T14:52:19.675Z,29.43
2018-10-19T14:53:19.650Z,29.52
2018-10-19T14:54:19.842Z,29.65
2018-10-19T14:55:19.628Z,29.67
2018-10-19T14:56:19.576Z,29.55
2018-10-19T14:57:19.558Z,29.24
2018-10-19T14:58:19.553Z,29.13
2018-10-19T14:59:19.713Z,29.10
2018-10-19T15:00:19.520Z,28.98
2018-10-19T15:01:19.459Z,29.10
2018-10-19T15:02:19.437Z,29.33
2018-10-19T15:03:19.418Z,29.32
2018-10-19T15:04:19.395Z,29.26
2018-10-19T15:05:19.476Z,29.08
2018-10-19T15:06:19.368Z,28.88
2018-10-19T15:07:19.313Z,28.88
2018-10-19T15:08:19.302Z,28.82
2018-10-19T15:09:19.431Z,28.79
2018-10-19T15:10:19.760Z,28.82
2018-10-19T15:11:19.615Z,29.11
2018-10-19T15:12:19.195Z,29.47
2018-10-19T15:13:19.177Z,29.63
2018-10-19T15:14:19.172Z,29.92
2018-10-19T15:15:19.247Z,30.07
2018-10-19T15:16:19.137Z,30.32
2018-10-19T15:17:19.081Z,30.37
2018-10-19T15:18:19.101Z,30.40
2018-10-19T15:19:19.036Z,30.57
2018-10-19T15:20:19.006Z,30.66
2018-10-19T15:21:19.136Z,30.56
2018-10-19T15:22:18.972Z,30.35
2018-10-19T15:23:18.969Z,30.54
2018-10-19T15:24:18.952Z,30.75
2018-10-19T15:25:18.914Z,30.93
2018-10-19T15:26:18.873Z,30.73
2018-10-19T15:27:18.965Z,30.66
2018-10-19T15:28:18.845Z,30.57
2018-10-19T15:29:18.884Z,30.63
2018-10-19T15:30:18.882Z,30.48
2018-10-19T15:31:18.774Z,30.62
2018-10-19T15:32:18.992Z,30.67
2018-10-19T15:33:18.750Z,30.81
2018-10-19T15:34:18.723Z,30.86
2018-10-19T15:35:18.699Z,30.59
2018-10-19T15:36:18.732Z,30.78
2018-10-19T15:37:18.823Z,30.77
2018-10-19T15:38:18.607Z,30.67
2018-10-19T15:39:18.604Z,30.73
2018-10-19T15:40:18.553Z,30.96
2018-10-19T15:41:18.587Z,31.12
2018-10-19T15:42:18.735Z,31.15
2018-10-19T15:43:18.517Z,31.08
2018-10-19T15:44:18.468Z,30.91
2018-10-19T15:45:18.506Z,30.81
2018-10-19T15:46:18.438Z,30.94
2018-10-19T15:47:18.404Z,30.73
2018-10-19T15:48:18.703Z,30.70
2018-10-19T15:49:18.378Z,30.86
2018-10-19T15:50:18.341Z,30.60
2018-10-19T15:51:18.310Z,30.89
2018-10-19T15:52:18.301Z,30.94
2018-10-19T15:53:18.287Z,31.07
2018-10-19T15:54:18.420Z,31.12
2018-10-19T15:55:18.221Z,30.96
2018-10-19T15:56:18.263Z,30.62
2018-10-19T15:57:18.309Z,30.37
2018-10-19T15:58:18.202Z,30.54
2018-10-19T15:59:18.447Z,30.54
2018-10-19T16:00:18.287Z,30.48
2018-10-19T16:01:18.120Z,30.34
2018-10-19T16:02:18.098Z,30.19
2018-10-19T16:03:18.127Z,30.25
2018-10-19T16:04:18.193Z,30.16
2018-10-19T16:05:18.111Z,29.84
2018-10-19T16:06:18.101Z,29.63
2018-10-19T16:07:18.020Z,29.65
2018-10-19T16:08:17.946Z,29.84
2018-10-19T16:09:17.959Z,30.10
2018-10-19T16:10:18.184Z,29.97
2018-10-19T16:11:17.936Z,30.09
2018-10-19T16:12:17.862Z,29.84
2018-10-19T16:13:17.832Z,29.45
2018-10-19T16:14:17.816Z,29.48
2018-10-19T16:15:17.983Z,29.43
2018-10-19T16:16:17.917Z,29.69
2018-10-19T16:17:17.731Z,29.87
2018-10-19T16:18:17.802Z,30.09
2018-10-19T16:19:17.752Z,30.09
2018-10-19T16:20:17.914Z,30.21
2018-10-19T16:21:17.709Z,30.02
2018-10-19T16:22:17.654Z,30.10
2018-10-19T16:23:17.628Z,30.25
2018-10-19T16:24:17.660Z,30.42
2018-10-19T16:25:17.710Z,30.56
2018-10-19T16:26:17.592Z,30.45
2018-10-19T16:27:17.705Z,30.40
2018-10-19T16:28:17.502Z,30.57
2018-10-19T16:29:17.531Z,30.79
2018-10-19T16:30:17.467Z,31.16
2018-10-19T16:31:17.607Z,31.33
2018-10-19T16:32:17.486Z,31.34
2018-10-19T16:33:17.444Z,31.47
2018-10-19T16:34:17.424Z,31.41
2018-10-19T16:35:17.421Z,31.37
2018-10-19T16:36:17.426Z,31.49
2018-10-19T16:37:17.430Z,31.56
2018-10-19T16:38:17.334Z,31.52
2018-10-19T16:39:17.275Z,31.43
2018-10-19T16:40:17.205Z,31.65
2018-10-19T16:41:17.208Z,31.82
2018-10-19T16:42:17.257Z,31.82
2018-10-19T16:43:17.309Z,31.72
2018-10-19T16:44:17.174Z,31.81
2018-10-19T16:45:17.255Z,31.82
2018-10-19T16:46:17.160Z,31.71
2018-10-19T16:47:17.091Z,31.88
2018-10-19T16:48:17.056Z,32.09
2018-10-19T16:49:17.169Z,31.98
2018-10-19T16:50:17.017Z,31.86
2018-10-19T16:51:16.986Z,31.86
2018-10-19T16:52:17.144Z,31.65
2018-10-19T16:53:17.096Z,31.59
2018-10-19T16:54:17.221Z,31.56
2018-10-19T16:55:16.889Z,31.70
2018-10-19T16:56:16.875Z,31.62
2018-10-19T16:57:16.898Z,31.59
2018-10-19T16:58:16.911Z,31.60
2018-10-19T16:59:16.960Z,31.49
2018-10-19T17:00:16.794Z,31.52
2018-10-19T17:01:16.753Z,31.56
2018-10-19T17:02:16.755Z,31.63
2018-10-19T17:03:16.848Z,31.34
2018-10-19T17:04:16.966Z,31.06
2018-10-19T17:05:16.756Z,31.18
2018-10-19T17:06:16.828Z,30.96
2018-10-19T17:07:16.648Z,31.08
2018-10-19T17:08:16.620Z,31.03
2018-10-19T17:09:16.920Z,31.15
2018-10-19T17:10:16.569Z,31.12
2018-10-19T17:11:16.842Z,31.18
2018-10-19T17:12:16.601Z,31.31
2018-10-19T17:13:16.495Z,31.58
2018-10-19T17:14:16.583Z,31.63
2018-10-19T17:15:16.472Z,31.67
2018-10-19T17:16:16.432Z,31.50
2018-10-19T17:17:16.673Z,31.40
2018-10-19T17:18:16.483Z,31.36
2018-10-19T17:19:16.532Z,31.49
2018-10-19T17:20:16.679Z,31.55
2018-10-19T17:21:16.426Z,31.44
2018-10-19T17:22:16.348Z,31.37
2018-10-19T17:23:16.284Z,31.30
2018-10-19T17:24:16.348Z,31.31
2018-10-19T17:25:16.259Z,31.22
2018-10-19T17:26:16.427Z,31.26
2018-10-19T17:27:16.253Z,31.30
2018-10-19T17:28:16.213Z,31.47
2018-10-19T17:29:16.249Z,31.41
2018-10-19T17:30:16.179Z,31.59
2018-10-19T17:31:16.257Z,31.56
2018-10-19T17:32:16.182Z,31.81
2018-10-19T17:33:16.178Z,32.16
2018-10-19T17:34:16.040Z,32.05
2018-10-19T17:35:16.069Z,31.74
2018-10-19T17:36:16.179Z,31.60
2018-10-19T17:37:16.245Z,31.72
2018-10-19T17:38:16.043Z,31.82
2018-10-19T17:39:16.004Z,31.74
2018-10-19T17:40:15.930Z,31.93
2018-10-19T17:41:15.977Z,31.71
2018-10-19T17:42:16.125Z,31.75
2018-10-19T17:43:15.945Z,31.80
2018-10-19T17:44:15.855Z,31.52
2018-10-19T17:45:15.914Z,31.56
2018-10-19T17:46:15.871Z,31.18
2018-10-19T17:47:16.081Z,30.79
2018-10-19T17:48:15.854Z,30.97
2018-10-19T17:49:15.797Z,31.30
2018-10-19T17:50:15.762Z,31.40
2018-10-19T17:51:15.884Z,31.63
2018-10-19T17:52:15.822Z,31.56
2018-10-19T17:53:15.724Z,31.53
2018-10-19T17:54:15.785Z,31.53
2018-10-19T17:55:15.628Z,31.50
2018-10-19T17:56:15.595Z,31.38
2018-10-19T17:57:15.798Z,31.47
2018-10-19T17:58:15.551Z,31.58
2018-10-19T17:59:15.607Z,31.26
2018-10-19T18:00:15.634Z,31.33
2018-10-19T18:01:15.472Z,31.34
2018-10-19T18:02:15.435Z,31.25
2018-10-19T18:03:15.676Z,31.19
2018-10-19T18:04:15.405Z,31.30
2018-10-19T18:05:15.491Z,31.10
2018-10-19T18:06:15.450Z,31.07
2018-10-19T18:07:15.344Z,31.22
2018-10-19T18:08:15.341Z,31.37
2018-10-19T18:09:15.582Z,31.31
2018-10-19T18:10:15.291Z,31.16
2018-10-19T18:11:15.604Z,31.18
2018-10-19T18:12:15.298Z,31.07
2018-10-19T18:13:15.200Z,30.85
2018-10-19T18:14:15.385Z,30.64
2018-10-19T18:15:15.223Z,30.40
2018-10-19T18:16:15.288Z,30.22
2018-10-19T18:17:15.235Z,30.03
2018-10-19T18:18:15.108Z,30.22
2018-10-19T18:19:15.233Z,30.18
2018-10-19T18:20:15.076Z,30.32
2018-10-19T18:21:15.162Z,30.37
2018-10-19T18:22:15.224Z,30.24
2018-10-19T18:23:15.379Z,30.22
2018-10-19T18:24:15.139Z,30.42
2018-10-19T18:25:14.931Z,30.10
2018-10-19T18:26:15.066Z,30.10
2018-10-19T18:27:15.071Z,30.03
2018-10-19T18:28:14.929Z,30.18
2018-10-19T18:29:15.193Z,30.00
2018-10-19T18:30:14.895Z,30.11
2018-10-19T18:31:14.805Z,29.92
2018-10-19T18:32:15.014Z,29.94
2018-10-19T18:33:14.800Z,29.85
2018-10-19T18:34:14.962Z,29.82
2018-10-19T18:35:14.800Z,30.02
2018-10-19T18:36:14.732Z,29.98
2018-10-19T18:37:14.758Z,29.94
2018-10-19T18:38:14.769Z,30.13
2018-10-19T18:39:14.808Z,29.94
2018-10-19T18:40:14.619Z,29.84
2018-10-19T18:41:14.823Z,29.58
2018-10-19T18:42:14.572Z,29.52
2018-10-19T18:43:14.558Z,29.51
2018-10-19T18:44:14.811Z,29.42
2018-10-19T18:45:14.512Z,29.17
2018-10-19T18:46:14.514Z,29.33
2018-10-19T18:47:14.602Z,29.21
2018-10-19T18:48:14.416Z,29.24
2018-10-19T18:49:14.441Z,29.03
2018-10-19T18:50:15.290Z,29.02
2018-10-19T18:51:14.385Z,28.92
2018-10-19T18:52:14.340Z,28.88
2018-10-19T18:53:14.434Z,28.83
2018-10-19T18:54:14.316Z,29.01
2018-10-19T18:55:14.329Z,29.01
2018-10-19T18:56:14.438Z,29.01
2018-10-19T18:57:14.237Z,29.03
2018-10-19T18:58:14.216Z,29.21
2018-10-19T18:59:14.320Z,29.23
2018-10-19T19:00:14.194Z,29.28
2018-10-19T19:01:14.241Z,29.36
2018-10-19T19:02:14.177Z,29.52
2018-10-19T19:03:14.099Z,29.61
2018-10-19T19:04:14.089Z,29.79
2018-10-19T19:05:14.124Z,29.91
2018-10-19T19:06:14.151Z,30.00
2018-10-19T19:07:14.007Z,30.10
2018-10-19T19:08:14.022Z,30.24
2018-10-19T19:09:13.975Z,29.97
2018-10-19T19:10:13.966Z,29.75
2018-10-19T19:11:14.117Z,29.82
2018-10-19T19:12:13.894Z,29.92
2018-10-19T19:13:13.872Z,29.95
2018-10-19T19:14:13.895Z,29.84
2018-10-19T19:15:13.825Z,29.98
2018-10-19T19:16:13.965Z,30.29
2018-10-19T19:17:13.828Z,30.34
2018-10-19T19:18:13.766Z,30.19
2018-10-19T19:19:13.759Z,30.37
2018-10-19T19:20:13.791Z,30.21
2018-10-19T19:21:13.980Z,30.09
2018-10-19T19:22:13.668Z,29.95
2018-10-19T19:23:13.649Z,29.79
2018-10-19T19:24:13.634Z,29.67
2018-10-19T19:25:13.632Z,29.84
2018-10-19T19:26:13.787Z,30.09
2018-10-19T19:27:13.879Z,30.32
2018-10-19T19:28:13.606Z,30.70
2018-10-19T19:29:13.621Z,30.75
2018-10-19T19:30:13.549Z,30.31
2018-10-19T19:31:13.482Z,30.40
2018-10-19T19:32:13.501Z,30.77
2018-10-19T19:33:13.626Z,30.84
2018-10-19T19:34:13.409Z,30.82
2018-10-19T19:35:13.454Z,31.16
2018-10-19T19:36:13.350Z,31.31
2018-10-19T19:37:13.320Z,31.12
2018-10-19T19:38:13.427Z,30.91
2018-10-19T19:39:13.448Z,30.66
2018-10-19T19:40:13.294Z,30.60
2018-10-19T19:41:13.335Z,30.42
2018-10-19T19:42:13.228Z,30.63
2018-10-19T19:43:13.208Z,30.75
2018-10-19T19:44:13.267Z,30.73
2018-10-19T19:45:13.264Z,30.63
2018-10-19T19:46:13.157Z,30.37
2018-10-19T19:47:13.176Z,30.25
2018-10-19T19:48:13.109Z,30.19
2018-10-19T19:49:13.160Z,30.22
2018-10-19T19:50:13.264Z,30.10
2018-10-19T19:51:13.020Z,30.10
2018-10-19T19:52:13.001Z,30.21
2018-10-19T19:53:13.096Z,30.48
2018-10-19T19:54:12.971Z,30.60
2018-10-19T19:55:13.036Z,30.69
2018-10-19T19:56:12.985Z,30.44
2018-10-19T19:57:12.889Z,30.40
2018-10-19T19:58:12.997Z,30.45
2018-10-19T19:59:13.086Z,30.79
2018-10-19T20:00:12.989Z,30.84
2018-10-19T20:01:12.801Z,30.77
2018-10-19T20:02:12.865Z,30.91
2018-10-19T20:03:12.783Z,30.70
2018-10-19T20:04:12.787Z,30.70
2018-10-19T20:05:12.943Z,30.78
2018-10-19T20:06:12.703Z,30.64
2018-10-19T20:07:12.744Z,30.73
2018-10-19T20:08:12.727Z,30.93
2018-10-19T20:09:12.618Z,30.69
2018-10-19T20:10:12.606Z,30.97
2018-10-19T20:11:12.717Z,31.00
2018-10-19T20:12:12.699Z,31.07
2018-10-19T20:13:12.540Z,31.04
2018-10-19T20:14:12.583Z,30.86
2018-10-19T20:15:12.517Z,30.66
2018-10-19T20:16:12.559Z,30.69
2018-10-19T20:17:12.542Z,30.29
2018-10-19T20:18:12.488Z,30.07
2018-10-19T20:19:12.409Z,30.37
2018-10-19T20:20:12.468Z,30.21
2018-10-19T20:21:12.409Z,30.37
2018-10-19T20:22:12.450Z,30.44
2018-10-19T20:23:12.437Z,30.49
2018-10-19T20:24:12.320Z,30.75
2018-10-19T20:25:12.270Z,30.63
2018-10-19T20:26:12.340Z,30.60
2018-10-19T20:27:12.340Z,30.62
2018-10-19T20:28:12.244Z,30.66
2018-10-19T20:29:12.326Z,30.62
2018-10-19T20:30:12.156Z,30.70
2018-10-19T20:31:12.138Z,30.82
2018-10-19T20:32:12.342Z,30.73
2018-10-19T20:33:12.162Z,30.82
2018-10-19T20:34:12.154Z,30.86
2018-10-19T20:35:12.161Z,30.85
2018-10-19T20:36:12.163Z,30.99
2018-10-19T20:37:12.147Z,30.85
2018-10-19T20:38:12.294Z,30.84
2018-10-19T20:39:11.967Z,30.89
2018-10-19T20:40:11.963Z,30.75
2018-10-19T20:41:12.028Z,30.70
2018-10-19T20:42:11.987Z,30.75
2018-10-19T20:43:11.882Z,30.48
2018-10-19T20:44:11.909Z,30.21
2018-10-19T20:45:11.852Z,30.25
2018-10-19T20:46:11.826Z,30.44
2018-10-19T20:47:11.850Z,30.57
2018-10-19T20:48:11.902Z,30.51
2018-10-19T20:49:11.740Z,30.75
2018-10-19T20:50:11.796Z,30.67
2018-10-19T20:51:11.749Z,30.37
2018-10-19T20:52:11.703Z,30.14
2018-10-19T20:53:11.822Z,29.91
2018-10-19T20:54:11.797Z,29.61
2018-10-19T20:55:11.628Z,29.67
2018-10-19T20:56:11.675Z,29.72
2018-10-19T20:57:11.569Z,29.91
2018-10-19T20:58:11.572Z,29.98
2018-10-19T20:59:11.794Z,29.88
2018-10-19T21:00:11.531Z,29.67
2018-10-19T21:01:11.474Z,29.73
2018-10-19T21:02:11.565Z,29.88
2018-10-19T21:03:11.484Z,29.85
2018-10-19T21:04:11.532Z,29.76
2018-10-19T21:05:11.652Z,29.92
2018-10-19T21:06:11.383Z,29.88
2018-10-19T21:07:11.444Z,29.63
2018-10-19T21:08:11.416Z,29.38
2018-10-19T21:09:11.305Z,29.33
2018-10-19T21:10:11.285Z,29.43
2018-10-19T21:11:11.656Z,29.55
2018-10-19T21:12:11.244Z,29.55
2018-10-19T21:13:11.247Z,29.54
2018-10-19T21:14:11.320Z,29.32
2018-10-19T21:15:11.226Z,29.21
2018-10-19T21:16:11.244Z,29.21
2018-10-19T21:17:11.423Z,29.20
2018-10-19T21:18:11.144Z,29.17
2018-10-19T21:19:11.296Z,29.36
2018-10-19T21:20:11.180Z,29.54
2018-10-19T21:21:11.051Z,29.54
2018-10-19T21:22:11.147Z,29.50
2018-10-19T21:23:11.093Z,29.66
2018-10-19T21:24:10.969Z,29.65
2018-10-19T21:25:11.028Z,29.48
2018-10-19T21:26:11.052Z,29.48
2018-10-19T21:27:10.966Z,29.54
2018-10-19T21:28:11.048Z,29.55
2018-10-19T21:29:10.941Z,29.52
2018-10-19T21:30:10.844Z,29.35
2018-10-19T21:31:10.828Z,29.14
2018-10-19T21:32:10.858Z,29.10
2018-10-19T21:33:11.149Z,28.97
2018-10-19T21:34:11.015Z,28.95
2018-10-19T21:35:10.901Z,28.92
2018-10-19T21:36:10.742Z,29.08
2018-10-19T21:37:10.678Z,29.11
2018-10-19T21:38:10.779Z,29.18
2018-10-19T21:39:10.846Z,29.32
2018-10-19T21:40:10.618Z,29.38
2018-10-19T21:41:10.639Z,29.39
2018-10-19T21:42:10.596Z,29.24
2018-10-19T21:43:10.801Z,29.36
2018-10-19T21:44:10.802Z,29.38
2018-10-19T21:45:10.498Z,29.32
2018-10-19T21:46:10.482Z,29.17
2018-10-19T21:47:10.555Z,29.32
2018-10-19T21:48:10.518Z,29.24
2018-10-19T21:49:10.448Z,29.21
2018-10-19T21:50:10.649Z,29.08
2018-10-19T21:51:10.368Z,28.91
2018-10-19T21:52:10.383Z,28.82
2018-10-19T21:53:10.383Z,28.76
2018-10-19T21:54:10.327Z,28.68
2018-10-19T21:55:10.247Z,28.63
2018-10-19T21:56:10.595Z,28.41
2018-10-19T21:57:10.855Z,28.36
2018-10-19T21:58:10.874Z,28.24
2018-10-19T21:59:10.575Z,28.33
2018-10-19T22:00:10.568Z,28.45
2018-10-19T22:01:10.557Z,28.61
2018-10-19T22:02:10.987Z,28.65
2018-10-19T22:03:10.757Z,28.63
2018-10-19T22:04:10.651Z,28.58
2018-10-19T22:05:10.556Z,28.55
2018-10-19T22:06:10.241Z,28.42
2018-10-19T22:07:10.211Z,28.30
2018-10-19T22:08:10.681Z,28.21
2018-10-19T22:09:10.262Z,28.42
2018-10-19T22:10:10.228Z,28.41
2018-10-19T22:11:09.922Z,28.38
2018-10-19T22:12:09.876Z,28.39
2018-10-19T22:13:10.064Z,28.24
2018-10-19T22:14:10.043Z,28.26
2018-10-19T22:15:10.048Z,28.28
2018-10-19T22:16:09.964Z,28.27
2018-10-19T22:17:09.880Z,28.31
2018-10-19T22:18:10.385Z,28.23
2018-10-19T22:19:11.447Z,28.18
2018-10-19T22:20:09.681Z,28.26
2018-10-19T22:21:09.664Z,28.06
2018-10-19T22:22:09.641Z,28.08
2018-10-19T22:23:09.810Z,27.90
2018-10-19T22:24:09.865Z,27.96
2018-10-19T22:25:09.943Z,27.90
2018-10-19T22:26:09.692Z,27.91
2018-10-19T22:27:09.528Z,27.87
2018-10-19T22:28:09.644Z,27.75
2018-10-19T22:29:10.500Z,27.66
2018-10-19T22:30:09.828Z,27.59
2018-10-19T22:31:10.938Z,27.62
2018-10-19T22:32:10.047Z,27.62
2018-10-19T22:33:09.592Z,27.49
2018-10-19T22:34:09.367Z,27.53
2018-10-19T22:35:09.729Z,27.53
2018-10-19T22:36:09.317Z,27.46
2018-10-19T22:37:09.555Z,27.48
2018-10-19T22:38:09.777Z,27.36
2018-10-19T22:39:09.230Z,27.33
2018-10-19T22:40:09.248Z,27.31
2018-10-19T22:41:09.272Z,27.19
2018-10-19T22:42:09.168Z,27.27
2018-10-19T22:43:09.853Z,27.21
2018-10-19T22:44:09.137Z,27.26
2018-10-19T22:45:09.101Z,27.26
2018-10-19T22:46:09.116Z,27.28
2018-10-19T22:47:09.093Z,27.27
2018-10-19T22:48:09.007Z,27.13
2018-10-19T22:49:09.204Z,27.16
2018-10-19T22:50:08.971Z,27.16
2018-10-19T22:51:08.961Z,27.09
2018-10-19T22:52:08.957Z,27.05
2018-10-19T22:53:08.919Z,27.04
2018-10-19T22:54:08.887Z,27.06
2018-10-19T22:55:09.072Z,27.08
2018-10-19T22:56:08.813Z,27.06
2018-10-19T22:57:08.791Z,26.93
2018-10-19T22:58:08.815Z,26.97
2018-10-19T22:59:08.820Z,26.97
2018-10-19T23:00:08.862Z,26.94
2018-10-19T23:01:08.815Z,26.82
2018-10-19T23:02:08.688Z,26.90
2018-10-19T23:03:08.660Z,26.82
2018-10-19T23:04:08.655Z,26.84
2018-10-19T23:05:08.749Z,26.86
2018-10-19T23:06:08.579Z,26.79
2018-10-19T23:07:08.639Z,26.84
2018-10-19T23:08:08.535Z,26.87
2018-10-19T23:09:08.525Z,26.81
2018-10-19T23:10:08.553Z,26.75
2018-10-19T23:11:08.472Z,26.75
2018-10-19T23:12:08.423Z,26.71
2018-10-19T23:13:08.421Z,26.71
2018-10-19T23:14:08.395Z,26.74
2018-10-19T23:15:08.373Z,26.74
2018-10-19T23:16:08.392Z,26.69
2018-10-19T23:17:08.358Z,26.71
2018-10-19T23:18:08.306Z,26.63
2018-10-19T23:19:08.305Z,26.52
2018-10-19T23:20:08.274Z,26.52
2018-10-19T23:21:08.398Z,26.50
2018-10-19T23:22:08.204Z,26.52
2018-10-19T23:23:08.154Z,26.56
2018-10-19T23:24:08.154Z,26.45
2018-10-19T23:25:08.149Z,26.49
2018-10-19T23:26:08.091Z,26.42
2018-10-19T23:27:08.287Z,26.38
2018-10-19T23:28:08.230Z,26.41
2018-10-19T23:29:10.135Z,26.32
2018-10-19T23:30:09.052Z,26.32
2018-10-19T23:38:09.276Z,26.32
2018-10-19T23:40:09.016Z,26.32
2018-10-19T23:43:08.913Z,26.19
2018-10-19T23:46:09.120Z,26.20
2018-10-19T23:49:08.154Z,26.23
2018-10-19T23:50:07.988Z,26.22
2018-10-19T23:51:08.198Z,26.12
2018-10-19T23:53:09.674Z,26.20
2018-10-19T23:55:07.444Z,26.15
2018-10-19T23:56:07.349Z,26.06
2018-10-19T23:57:07.303Z,26.06
